Etusivu
METAR-TAF:

METAR-TAF

Lentoasemat :

Visalia Municipal Airport

Visalia, Kalifornia, Yhdysvallat

Leveyspiiri: 36-19N, Pituuspiiri: 119-24W, korkeus merenpinnasta: 89 m

Tämänhetkinen sää

Tämä raportti tehtiin 29 minuuttia sitten, kello 19.56 UTC
Tuuli 5 kn etelästä
Lämpötila 18°C
Kosteus 49%
Ilmanpaine 1022 hPa
Näkyvyys: 16.1 km
selkeää

METAR: KVIS 221956Z AUTO 18005KT 10SM CLR 18/07 A3017 RMK AO2 RAE1858 SLP224 P0000 T01780072

Aika: 12:25 (20:25 UTC)

Sääennuste

Tämä raportti tehtiin 3 tuntia ja 5 minuuttia sitten, kello 17.20 UTC
Ennuste voimassa 22. päivästä klo 18 UTC - 23. päivään klo 18 UTC
Tuuli 3 kn eri suunnista
Näkyvyys: 10 km
selkeää
Ajoittain
23. päivästä klo 13 UTC - 23. päivään klo 17 UTC
Näkyvyys: 6.4 km
utua

TAF: KVIS 221720Z 2218/2318 VRB03KT P6SM SKC TEMPO 2313/2317 4SM BR

Säähavainnot ja -ennusteet yli 4000 lentoasemalta (METAR- ja TAF-raportit).

Käytössä olevat sääasemat on merkitty karttaan keltaisilla ja punaisilla pisteillä.

Aseta hiiri pisteen päälle nähdäksesi sääaseman nimen.

Klikkaa sitten nähdäksesi säähavainnot ja -ennusteet.

Kartan vaihtaminen: klikkaa mustalla rastilla varustettuja vihreitä pisteitä, niin voit zoomata sisään; viivalla varustettua vihreää pistettä, niin voit zoomata ulos tai vihreitä nuolia, niin pääset viereisille kartoille.


METAR-TAF: